Time;durP1;ratioP1;P1;durP2;ratioP2;P2;SDS_P1;SDS_P2;PMS_P1;PMS_P2;Temp;Humidity;BMP_temperature;BMP_pressure;BME280_temperature;BME280_humidity;BME280_pressure;Samples;Min_cycle;Max_cycle;Signal;HPM_P1;HPM_P2
2023/10/13 00:03:46;;;;;;;12.90;6.10;;;;;;;14.29;100.00;99116.55;272394;1271;24917;-81
2023/10/13 00:09:48;;;;;;;20.70;7.20;;;;;;;14.21;100.00;99114.02;270286;1270;23266;-81
2023/10/13 00:22:08;;;;;;;12.60;6.30;;;;;;;14.23;100.00;99111.43;273120;1270;22216;-82
2023/10/13 00:28:10;;;;;;;12.40;6.00;;;;;;;14.17;100.00;99108.83;270375;1272;22553;-83
2023/10/13 00:34:20;;;;;;;13.20;6.20;;;;;;;14.19;100.00;99104.73;269755;1272;23270;-82
2023/10/13 00:46:33;;;;;;;14.90;6.50;;;;;;;14.12;100.00;99106.87;269602;1270;22568;-82
2023/10/13 00:52:36;;;;;;;15.00;6.80;;;;;;;14.07;100.00;99109.48;271033;1270;22319;-81
2023/10/13 00:58:39;;;;;;;14.70;7.00;;;;;;;13.98;100.00;99102.58;272498;1270;22210;-82
2023/10/13 01:04:40;;;;;;;14.00;6.60;;;;;;;13.87;100.00;99102.81;272670;1270;22605;-82
2023/10/13 01:10:42;;;;;;;12.20;7.30;;;;;;;13.81;100.00;99096.69;271696;1259;23213;-84
2023/10/13 01:16:45;;;;;;;17.10;7.10;;;;;;;13.80;100.00;99087.39;272931;1271;22328;-82
2023/10/13 01:22:55;;;;;;;15.20;7.30;;;;;;;13.77;100.00;99083.40;272988;1272;23399;-82
2023/10/13 01:28:58;;;;;;;14.60;6.70;;;;;;;13.73;100.00;99087.48;273543;1270;22197;-82
2023/10/13 01:35:05;;;;;;;18.80;7.00;;;;;;;13.70;100.00;99085.28;272203;1270;22441;-81
2023/10/13 01:41:08;;;;;;;15.80;7.50;;;;;;;13.68;100.00;99086.69;272988;1270;22295;-81
2023/10/13 01:47:12;;;;;;;12.30;6.40;;;;;;;13.69;100.00;99087.16;272591;1271;22541;-83
2023/10/13 01:53:17;;;;;;;13.30;6.40;;;;;;;13.70;100.00;99080.56;270417;1270;23015;-81
2023/10/13 01:59:19;;;;;;;13.60;6.80;;;;;;;13.68;100.00;99072.00;272990;1270;22305;-82
2023/10/13 02:05:23;;;;;;;13.50;6.50;;;;;;;13.67;100.00;99070.35;269702;1270;22547;-81
2023/10/13 02:11:28;;;;;;;12.10;6.90;;;;;;;13.63;100.00;99076.55;269886;1272;24032;-82
2023/10/13 02:17:40;;;;;;;14.60;6.20;;;;;;;13.59;100.00;99062.40;269969;1272;25052;-82
2023/10/13 02:23:45;;;;;;;14.50;5.30;;;;;;;13.53;100.00;99056.83;271169;1272;22317;-81
2023/10/13 02:29:49;;;;;;;10.20;5.70;;;;;;;13.41;100.00;99050.15;272666;1272;22198;-82
2023/10/13 02:35:53;;;;;;;9.70;5.30;;;;;;;13.29;100.00;99051.32;272939;1268;22222;-82
2023/10/13 02:42:23;;;;;;;11.80;5.30;;;;;;;13.21;100.00;99057.19;272307;1270;22199;-81
2023/10/13 02:48:30;;;;;;;11.10;5.50;;;;;;;13.16;100.00;99056.95;273053;1270;22339;-82
2023/10/13 02:54:37;;;;;;;10.90;4.90;;;;;;;13.11;100.00;99060.95;273045;1265;22952;-82
2023/10/13 03:00:42;;;;;;;6.60;5.00;;;;;;;13.01;100.00;99071.59;272999;1268;22945;-82
2023/10/13 03:06:47;;;;;;;8.00;5.10;;;;;;;12.92;100.00;99074.69;272998;1272;22347;-81
2023/10/13 03:12:53;;;;;;;8.70;5.40;;;;;;;12.88;100.00;99079.30;271948;1272;22363;-82
2023/10/13 03:18:56;;;;;;;10.20;4.70;;;;;;;12.82;100.00;99071.90;272561;1271;22306;-82
2023/10/13 03:25:06;;;;;;;9.30;4.40;;;;;;;12.75;100.00;99067.02;272524;1272;22365;-82
2023/10/13 03:31:14;;;;;;;18.00;6.40;;;;;;;12.71;100.00;99061.98;272266;1270;23483;-82
2023/10/13 03:37:22;;;;;;;7.80;4.40;;;;;;;12.62;100.00;99060.47;271164;1272;22206;-81
2023/10/13 03:43:29;;;;;;;17.70;4.70;;;;;;;12.52;100.00;99068.02;272311;1270;22798;-81
2023/10/13 03:49:51;;;;;;;11.10;5.80;;;;;;;12.48;100.00;99082.60;272397;1268;281882;-82
2023/10/13 03:56:08;;;;;;;9.90;5.50;;;;;;;12.45;100.00;99082.42;270895;1272;22364;-82
2023/10/13 04:02:21;;;;;;;11.40;6.30;;;;;;;12.37;100.00;99090.23;270186;1266;22540;-84
2023/10/13 04:08:48;;;;;;;12.20;6.00;;;;;;;12.34;100.00;99091.71;269986;1263;22218;-84
2023/10/13 04:21:18;;;;;;;9.10;5.40;;;;;;;12.30;100.00;99088.70;272081;1270;22277;-83
2023/10/13 04:34:02;;;;;;;16.60;7.50;;;;;;;12.35;100.00;99087.00;270821;1272;22579;-82
2023/10/13 04:40:11;;;;;;;13.70;7.80;;;;;;;12.42;100.00;99094.33;270694;1272;22328;-81
2023/10/13 04:46:25;;;;;;;15.50;8.70;;;;;;;12.46;100.00;99092.23;270040;1268;23886;-81
2023/10/13 04:59:17;;;;;;;11.30;6.10;;;;;;;12.60;100.00;99098.65;272119;1272;22324;-82
2023/10/13 05:49:50;;;;;;;11.00;7.20;;;;;;;13.00;100.00;99127.02;269888;1272;23130;-82
2023/10/13 06:34:03;;;;;;;13.10;7.30;;;;;;;13.20;100.00;99142.02;271633;1272;22555;-82
2023/10/13 06:46:28;;;;;;;10.80;6.70;;;;;;;13.29;100.00;99154.91;271112;1267;22326;-81
2023/10/13 06:52:31;;;;;;;10.00;6.80;;;;;;;13.34;100.00;99155.24;272011;1272;22426;-82
2023/10/13 06:58:33;;;;;;;11.40;7.70;;;;;;;13.39;100.00;99162.73;272131;1268;22439;-81
2023/10/13 07:04:39;;;;;;;14.50;7.50;;;;;;;13.47;100.00;99168.31;272420;1272;22386;-81
2023/10/13 07:11:05;;;;;;;12.60;7.10;;;;;;;13.59;100.00;99163.39;272367;1272;22294;-83
2023/10/13 07:17:08;;;;;;;14.20;7.50;;;;;;;13.71;100.00;99168.12;272433;1272;22332;-82
2023/10/13 07:23:17;;;;;;;10.20;6.70;;;;;;;13.82;100.00;99168.84;272538;1272;22342;-81
2023/10/13 07:29:19;;;;;;;16.00;6.90;;;;;;;13.96;100.00;99166.25;272354;1272;22325;-81
2023/10/13 07:35:24;;;;;;;14.30;7.80;;;;;;;14.14;100.00;99170.34;272363;1272;22988;-82
2023/10/13 07:41:30;;;;;;;15.10;8.60;;;;;;;14.36;100.00;99174.20;272199;1272;22216;-82
2023/10/13 07:47:33;;;;;;;19.10;9.00;;;;;;;14.57;100.00;99171.11;271966;1272;22376;-82
2023/10/13 07:53:40;;;;;;;18.50;8.50;;;;;;;14.76;100.00;99166.96;272878;1272;23828;-82
2023/10/13 07:59:51;;;;;;;19.50;8.30;;;;;;;14.94;100.00;99166.11;272579;1272;22192;-82
2023/10/13 08:05:58;;;;;;;16.00;8.50;;;;;;;15.15;100.00;99164.77;272373;1272;22433;-82
2023/10/13 08:12:05;;;;;;;13.10;8.20;;;;;;;15.39;100.00;99164.11;272635;1272;22205;-82
2023/10/13 08:18:17;;;;;;;12.10;6.80;;;;;;;15.65;100.00;99162.00;271496;1272;22805;-82
2023/10/13 08:24:29;;;;;;;13.20;6.30;;;;;;;16.15;100.00;99162.00;272463;1272;22278;-82
2023/10/13 08:30:42;;;;;;;11.20;5.70;;;;;;;16.70;100.00;99157.95;272403;1272;22406;-82
2023/10/13 08:36:45;;;;;;;11.30;5.70;;;;;;;17.69;100.00;99158.17;272670;1272;22320;-82
2023/10/13 08:48:52;;;;;;;7.90;4.70;;;;;;;19.72;100.00;99153.09;272610;1272;22303;-83
2023/10/13 08:55:04;;;;;;;13.70;5.70;;;;;;;20.55;100.00;99159.64;272372;1272;22419;-82
2023/10/13 09:01:34;;;;;;;11.30;4.70;;;;;;;21.35;100.00;99159.23;272681;1272;22354;-83
2023/10/13 09:07:28;;;;;;;12.20;5.00;;;;;;;22.10;100.00;99160.95;271790;1272;22589;-83
2023/10/13 09:13:44;;;;;;;12.30;5.20;;;;;;;22.90;100.00;99160.45;272590;1272;22356;-83
2023/10/13 09:19:47;;;;;;;11.00;4.70;;;;;;;23.83;100.00;99158.61;271790;1272;22302;-83
2023/10/13 09:25:58;;;;;;;13.20;4.50;;;;;;;24.43;100.00;99153.13;271543;1272;22711;-83
2023/10/13 09:32:04;;;;;;;6.80;4.50;;;;;;;24.90;100.00;99147.02;271625;1272;22886;-84
2023/10/13 09:38:06;;;;;;;7.10;4.60;;;;;;;25.30;99.94;99143.29;272309;1272;22529;-84
2023/10/13 09:44:08;;;;;;;9.80;5.10;;;;;;;25.75;99.16;99141.42;272269;1272;22554;-82
2023/10/13 09:50:14;;;;;;;8.60;4.30;;;;;;;25.66;95.44;99141.67;272022;1272;22185;-83
2023/10/13 09:56:27;;;;;;;;;;;;;;;25.06;93.61;99140.23;272345;1272;22630;-83
2023/10/13 10:02:29;;;;;;;10.70;4.90;;;;;;;24.88;92.78;99132.78;272349;1272;22323;-82
2023/10/13 10:08:34;;;;;;;6.70;4.30;;;;;;;24.57;91.30;99129.99;272943;1271;22353;-84
2023/10/13 10:14:56;;;;;;;8.60;4.20;;;;;;;23.95;89.62;99129.88;272896;1272;23826;-83
2023/10/13 10:21:11;;;;;;;10.00;5.10;;;;;;;23.28;89.02;99121.43;272563;1272;22733;-84
2023/10/13 10:27:25;;;;;;;6.10;4.00;;;;;;;23.06;89.98;99113.06;272156;1272;22562;-83
2023/10/13 10:33:33;;;;;;;12.30;5.10;;;;;;;23.35;88.77;99100.80;271685;1272;22374;-82
2023/10/13 10:39:45;;;;;;;10.90;4.70;;;;;;;23.29;87.25;99099.39;271904;1272;23038;-82
2023/10/13 10:45:51;;;;;;;10.40;4.30;;;;;;;23.29;87.26;99091.97;272342;1272;23427;-84
2023/10/13 10:51:59;;;;;;;9.10;4.60;;;;;;;23.19;87.13;99081.68;272148;1264;22591;-82
2023/10/13 10:58:05;;;;;;;13.90;4.60;;;;;;;23.03;86.56;99077.27;272305;1270;22933;-84
2023/10/13 11:04:08;;;;;;;6.80;4.10;;;;;;;22.78;85.58;99075.59;271798;1270;22656;-82
2023/10/13 11:10:26;;;;;;;8.60;4.20;;;;;;;22.76;85.18;99071.17;271958;1270;22216;-83
2023/10/13 11:16:34;;;;;;;7.40;3.80;;;;;;;22.73;84.49;99065.96;273176;1270;22333;-84
2023/10/13 11:22:41;;;;;;;6.90;3.70;;;;;;;22.59;84.20;99058.77;273335;1270;22973;-83
2023/10/13 11:28:50;;;;;;;10.00;4.20;;;;;;;22.53;83.69;99057.70;272296;1272;22374;-82
2023/10/13 11:34:54;;;;;;;10.10;3.70;;;;;;;22.52;82.84;99062.68;271426;1270;22542;-83
2023/10/13 11:47:32;;;;;;;4.00;3.00;;;;;;;22.45;81.47;99057.17;271606;1270;22657;-82
2023/10/13 11:53:34;;;;;;;6.90;3.60;;;;;;;22.39;81.45;99052.11;271988;1270;22608;-82
2023/10/13 11:59:40;;;;;;;10.10;3.60;;;;;;;22.11;81.23;99040.75;271713;1272;23190;-83
2023/10/13 12:06:18;;;;;;;;;;;;;;;21.90;80.47;99036.45;273088;1270;22479;-83
2023/10/13 12:12:13;;;;;;;13.80;5.10;;;;;;;21.71;80.93;99033.10;273616;1270;23276;-83
2023/10/13 12:18:16;;;;;;;9.20;4.20;;;;;;;21.71;81.08;99028.63;272557;1272;22550;-83
2023/10/13 12:30:52;;;;;;;10.80;4.20;;;;;;;21.59;81.21;99019.70;272531;1270;22553;-83
2023/10/13 12:37:05;;;;;;;7.50;4.00;;;;;;;21.54;81.60;99019.94;273335;1272;22338;-86
2023/10/13 12:55:42;;;;;;;6.90;3.70;;;;;;;21.56;83.04;99003.49;272647;1272;22515;-83
2023/10/13 13:01:44;;;;;;;6.70;3.90;;;;;;;21.56;82.38;98998.80;272729;1264;22202;-84
2023/10/13 13:07:52;;;;;;;7.30;3.20;;;;;;;21.56;82.01;98997.61;272578;1270;22549;-82
2023/10/13 13:13:58;;;;;;;7.70;3.20;;;;;;;21.48;81.65;98990.23;271048;1270;22567;-82
2023/10/13 13:20:00;;;;;;;6.30;3.60;;;;;;;21.48;81.42;98976.71;271402;1265;23469;-82
2023/10/13 13:26:04;;;;;;;10.20;3.40;;;;;;;21.42;81.75;98981.60;271917;1264;23571;-82
2023/10/13 13:32:17;;;;;;;8.70;3.40;;;;;;;21.33;82.11;98979.75;272191;1270;22646;-82
2023/10/13 13:38:27;;;;;;;7.70;3.40;;;;;;;21.30;82.27;98976.75;271558;1270;22600;-82
2023/10/13 13:44:35;;;;;;;7.50;4.20;;;;;;;21.27;82.18;98972.71;271165;1270;22784;-83
2023/10/13 13:50:41;;;;;;;7.30;3.10;;;;;;;21.26;82.17;98966.16;271203;1271;22507;-82
2023/10/13 13:56:44;;;;;;;7.00;3.20;;;;;;;21.27;81.92;98956.48;271318;1270;22595;-83
2023/10/13 14:02:47;;;;;;;8.80;3.20;;;;;;;21.25;81.84;98949.71;271390;1265;23318;-82
2023/10/13 14:08:51;;;;;;;5.90;3.60;;;;;;;21.16;82.30;98950.55;272356;1270;23082;-85
2023/10/13 14:14:57;;;;;;;11.80;3.70;;;;;;;21.04;82.59;98946.33;272054;1270;22944;-82
2023/10/13 14:21:03;;;;;;;5.90;3.20;;;;;;;20.96;83.12;98941.41;272689;1271;22543;-83
2023/10/13 14:27:09;;;;;;;7.70;4.00;;;;;;;20.89;83.63;98942.27;273378;1272;22571;-83
2023/10/13 14:33:14;;;;;;;5.00;3.60;;;;;;;20.82;84.34;98939.13;272324;1270;22237;-84
2023/10/13 14:39:18;;;;;;;7.50;3.60;;;;;;;20.81;84.80;98939.71;272443;1272;22202;-83
2023/10/13 14:45:24;;;;;;;13.60;3.60;;;;;;;20.86;84.97;98933.18;272855;1270;23056;-83
2023/10/13 14:51:28;;;;;;;6.90;4.10;;;;;;;20.90;84.92;98930.39;272094;1269;22974;-83
2023/10/13 14:57:30;;;;;;;9.20;4.80;;;;;;;20.91;84.82;98923.01;272892;1260;22409;-83
2023/10/13 15:03:37;;;;;;;11.10;3.50;;;;;;;20.85;84.83;98924.27;272947;1271;22283;-83
2023/10/13 15:09:47;;;;;;;8.40;4.00;;;;;;;20.78;85.09;98922.89;271745;1264;22526;-83
2023/10/13 15:15:49;;;;;;;8.30;3.70;;;;;;;20.72;85.18;98923.95;272554;1270;22574;-82
2023/10/13 15:21:54;;;;;;;6.50;4.10;;;;;;;20.64;85.49;98926.89;272745;1265;22640;-83
2023/10/13 15:28:02;;;;;;;7.80;3.70;;;;;;;20.45;86.10;98926.83;272558;1270;22558;-82
2023/10/13 15:34:14;;;;;;;9.20;3.80;;;;;;;20.29;86.86;98926.02;271795;1272;22420;-82
2023/10/13 15:40:21;;;;;;;7.40;4.40;;;;;;;20.15;87.13;98922.91;272779;1270;22154;-82
2023/10/13 15:46:23;;;;;;;8.30;4.00;;;;;;;19.98;87.53;98917.84;271828;1270;22874;-83
2023/10/13 15:52:26;;;;;;;6.50;4.10;;;;;;;19.80;88.08;98909.84;271587;1266;144861;-81
2023/10/13 15:58:29;;;;;;;8.70;4.20;;;;;;;19.68;88.22;98898.67;272340;1271;25414;-82
2023/10/13 16:04:30;;;;;;;7.50;4.20;;;;;;;19.56;88.76;98898.52;270749;1270;23644;-83
2023/10/13 16:10:33;;;;;;;5.80;4.10;;;;;;;19.50;89.01;98898.02;271323;1271;22330;-82
2023/10/13 16:16:35;;;;;;;8.50;4.00;;;;;;;19.42;89.56;98897.13;271900;1268;22525;-83
2023/10/13 16:22:36;;;;;;;6.70;3.70;;;;;;;19.29;90.11;98897.21;272096;1270;22360;-82
2023/10/13 16:28:38;;;;;;;6.30;4.00;;;;;;;19.15;90.56;98902.40;271518;1270;24215;-82
2023/10/13 16:34:41;;;;;;;10.50;3.90;;;;;;;19.01;90.89;98897.52;271457;1271;22521;-83
2023/10/13 16:40:44;;;;;;;8.10;4.60;;;;;;;18.86;91.43;98890.58;271549;1271;22566;-82
2023/10/13 16:46:45;;;;;;;8.30;4.60;;;;;;;18.79;91.77;98891.06;270759;1270;23320;-82
2023/10/13 16:52:47;;;;;;;8.80;4.70;;;;;;;18.79;91.92;98887.50;271507;1272;22537;-83
2023/10/13 16:58:54;;;;;;;8.10;4.20;;;;;;;18.74;92.19;98892.77;271105;1270;23300;-83
2023/10/13 17:04:58;;;;;;;6.90;4.20;;;;;;;18.75;92.03;98884.66;264230;1270;10001566;-83
2023/10/13 17:11:13;;;;;;;8.20;4.40;;;;;;;18.76;92.31;98877.69;271498;1270;22222;-83
2023/10/13 17:17:15;;;;;;;8.50;4.50;;;;;;;18.79;92.25;98873.23;270984;1270;23385;-82
2023/10/13 17:23:17;;;;;;;7.80;4.50;;;;;;;18.80;92.23;98867.13;271319;1272;25284;-83
2023/10/13 17:29:23;;;;;;;8.60;4.00;;;;;;;18.81;92.17;98863.21;272046;1270;22318;-82
2023/10/13 17:35:26;;;;;;;10.40;4.50;;;;;;;18.80;92.13;98852.71;272448;1270;22234;-82
2023/10/13 17:41:32;;;;;;;8.10;4.40;;;;;;;18.79;92.17;98849.94;271870;1271;23273;-83
2023/10/13 17:47:36;;;;;;;9.60;4.40;;;;;;;18.76;92.17;98849.63;271468;1268;22496;-82
2023/10/13 17:53:38;;;;;;;6.50;3.90;;;;;;;18.72;92.11;98848.36;271623;1272;22352;-82
2023/10/13 17:59:44;;;;;;;9.90;4.30;;;;;;;18.64;91.98;98844.84;270772;1271;22562;-82
2023/10/13 18:05:46;;;;;;;13.90;5.20;;;;;;;18.51;92.05;98836.89;271636;1270;22472;-82
2023/10/13 18:11:48;;;;;;;8.00;4.50;;;;;;;18.46;92.02;98832.98;271291;1270;22606;-82
2023/10/13 18:17:53;;;;;;;8.50;4.30;;;;;;;18.34;92.23;98832.13;271213;1270;22227;-80
2023/10/13 18:23:55;;;;;;;8.20;4.00;;;;;;;18.21;92.44;98826.16;270036;1270;23103;-83
2023/10/13 18:29:56;;;;;;;15.80;4.80;;;;;;;18.16;92.55;98823.73;271746;1272;23677;-82
2023/10/13 18:36:09;;;;;;;7.80;4.40;;;;;;;18.19;92.48;98816.15;271623;1272;22952;-83
2023/10/13 18:42:11;;;;;;;7.40;4.10;;;;;;;18.14;92.70;98810.95;271622;1270;22226;-83
2023/10/13 18:48:14;;;;;;;11.50;4.10;;;;;;;18.12;92.72;98802.39;272907;1272;23526;-83
2023/10/13 18:54:19;;;;;;;7.90;4.30;;;;;;;18.10;92.73;98793.80;272083;1272;22558;-82
2023/10/13 19:00:22;;;;;;;12.10;4.50;;;;;;;18.09;92.59;98782.42;271735;1272;22224;-82
2023/10/13 19:06:24;;;;;;;9.70;4.00;;;;;;;17.97;92.83;98779.52;272791;1270;22675;-83
2023/10/13 19:12:27;;;;;;;13.70;4.70;;;;;;;17.80;93.17;98780.85;272484;1269;23298;-82
2023/10/13 19:18:36;;;;;;;10.30;4.60;;;;;;;17.64;93.81;98780.23;270619;1271;22212;-84
2023/10/13 19:24:37;;;;;;;12.40;4.70;;;;;;;17.52;94.09;98776.77;271224;1265;22234;-83
2023/10/13 19:30:41;;;;;;;12.10;5.30;;;;;;;17.37;94.66;98780.60;272611;1266;22519;-83
2023/10/13 19:36:43;;;;;;;13.40;4.60;;;;;;;17.19;95.25;98783.79;271865;1272;22340;-83
2023/10/13 19:42:45;;;;;;;14.00;5.00;;;;;;;17.04;95.79;98783.11;271377;1272;22928;-83
2023/10/13 19:48:50;;;;;;;11.90;4.90;;;;;;;16.91;96.35;98776.77;272596;1272;22199;-84
2023/10/13 19:54:52;;;;;;;11.80;6.20;;;;;;;16.80;96.79;98774.84;272365;1271;23656;-83
2023/10/13 20:00:55;;;;;;;12.10;5.60;;;;;;;16.71;97.14;98775.86;270939;1272;22589;-83
2023/10/13 20:06:56;;;;;;;15.00;5.80;;;;;;;16.64;97.60;98776.31;270659;1270;22355;-83
2023/10/13 20:13:01;;;;;;;10.90;5.50;;;;;;;16.54;97.80;98774.19;272611;1272;22378;-84
2023/10/13 20:19:02;;;;;;;10.90;5.50;;;;;;;16.44;98.30;98770.77;271913;1270;22571;-83
2023/10/13 20:25:07;;;;;;;14.40;5.90;;;;;;;16.32;98.74;98761.16;272839;1271;22329;-84
2023/10/13 20:31:10;;;;;;;11.20;5.30;;;;;;;16.21;99.06;98751.08;272528;1270;22425;-83
2023/10/13 20:37:12;;;;;;;12.00;5.60;;;;;;;16.13;99.84;98754.27;272980;1270;22425;-84
2023/10/13 20:43:14;;;;;;;12.30;4.50;;;;;;;16.05;100.00;98750.21;270906;1271;23579;-84
2023/10/13 20:49:23;;;;;;;16.80;6.50;;;;;;;15.99;100.00;98750.00;272846;1270;22432;-84
2023/10/13 20:55:25;;;;;;;17.10;6.60;;;;;;;15.95;100.00;98743.83;272578;1272;22665;-83
2023/10/13 21:01:30;;;;;;;15.80;7.00;;;;;;;15.92;100.00;98736.13;272694;1271;23683;-83
2023/10/13 21:07:32;;;;;;;17.20;6.80;;;;;;;15.94;100.00;98725.22;271919;1272;22320;-82
2023/10/13 21:13:34;;;;;;;12.80;6.20;;;;;;;15.94;100.00;98723.88;272857;1272;22223;-83
2023/10/13 21:19:39;;;;;;;16.00;6.40;;;;;;;15.88;100.00;98720.80;270957;1272;22554;-84
2023/10/13 21:25:42;;;;;;;12.30;5.90;;;;;;;15.78;100.00;98713.31;270861;1271;22327;-83
2023/10/13 21:31:44;;;;;;;13.00;6.40;;;;;;;15.66;100.00;98700.70;272087;1255;22399;-83
2023/10/13 21:37:46;;;;;;;14.80;6.20;;;;;;;15.55;100.00;98701.48;272591;1272;22299;-83
2023/10/13 21:43:55;;;;;;;12.30;6.40;;;;;;;15.45;100.00;98706.10;271897;1272;22545;-83
2023/10/13 21:49:58;;;;;;;11.80;6.70;;;;;;;15.27;100.00;98701.58;271306;1272;22858;-83
2023/10/13 21:55:59;;;;;;;13.20;6.80;;;;;;;15.11;100.00;98694.52;271626;1272;22611;-83
2023/10/13 22:02:01;;;;;;;16.90;6.50;;;;;;;14.97;100.00;98683.02;272345;1268;23342;-83
2023/10/13 22:08:03;;;;;;;17.60;7.30;;;;;;;14.88;100.00;98670.05;273087;1272;22303;-83
2023/10/13 22:14:05;;;;;;;13.00;6.20;;;;;;;14.81;100.00;98662.52;272046;1272;22578;-84
2023/10/13 22:20:10;;;;;;;14.60;7.00;;;;;;;14.65;100.00;98657.65;272811;1272;23403;-83
2023/10/13 22:26:14;;;;;;;14.80;7.70;;;;;;;14.46;100.00;98665.39;272817;1272;22235;-83
2023/10/13 22:32:26;;;;;;;15.20;7.60;;;;;;;14.31;100.00;98664.89;271131;1272;22932;-83
2023/10/13 22:38:29;;;;;;;17.70;8.00;;;;;;;14.18;100.00;98665.54;269963;1272;22467;-84
2023/10/13 22:44:33;;;;;;;13.30;6.00;;;;;;;14.07;100.00;98663.03;270831;1270;22502;-83
2023/10/13 22:50:34;;;;;;;11.40;6.30;;;;;;;13.96;100.00;98654.55;272550;1264;22476;-83
2023/10/13 22:56:40;;;;;;;17.90;5.80;;;;;;;13.93;100.00;98643.08;271723;1272;22531;-82
2023/10/13 23:02:48;;;;;;;12.00;6.50;;;;;;;13.90;100.00;98633.52;271569;1272;22649;-83
2023/10/13 23:08:52;;;;;;;16.60;7.10;;;;;;;13.90;100.00;98635.33;272060;1271;22199;-83
2023/10/13 23:14:54;;;;;;;10.40;5.90;;;;;;;13.83;100.00;98628.15;270519;1271;22716;-83
2023/10/13 23:21:10;;;;;;;15.50;5.90;;;;;;;13.67;100.00;98617.81;270056;1272;23460;-82
2023/10/13 23:27:12;;;;;;;16.40;6.10;;;;;;;13.54;100.00;98606.67;270180;1272;22506;-83
2023/10/13 23:33:16;;;;;;;12.00;6.00;;;;;;;13.38;100.00;98605.36;271585;1272;22321;-84
2023/10/13 23:39:33;;;;;;;13.60;6.30;;;;;;;13.29;100.00;98597.96;272674;1272;22222;-82
2023/10/13 23:45:43;;;;;;;13.50;6.30;;;;;;;13.19;100.00;98579.97;272635;1272;23376;-84
2023/10/13 23:51:49;;;;;;;11.10;6.00;;;;;;;13.20;100.00;98568.96;272500;1272;22840;-84
2023/10/13 23:57:51;;;;;;;18.60;5.50;;;;;;;13.19;100.00;98562.36;272603;1266;22189;-84
